Komarno — UAZD — position and weather

sailwx.info

Track history (hours):
 
Tides and Currents Weather Stations Pressure Air Temp Water Temp Dewpoint Dewpoint Depression Visibility Wind Speed Wind Dir Waves Ship Positions

Komarno

Last reported at 2017-Oct-17 21:52 UTC. Time now 2017-Oct-19 16:21 UTC.
Position N 71°27' E 028°10'.

Length 54 m; draft 5.5 m.

Type: Fishing. MMSI: 273517900.

Date/timePositionNaut miles runAvg speedWind from/ knotsBaromVisibWave heightAir tempDewpointWater temp
2017-Oct-17 21:52N 71°27' E 028°10'410.3
2017-Oct-17 21:30N 71°24' E 028°19'510.2
2017-Oct-17 20:59N 71°21' E 028°31'5 9.6
2017-Oct-17 20:29N 71°18' E 028°43'5 9.7
2017-Oct-17 20:00N 71°15' E 028°54'5 9.6
2017-Oct-17 19:30N 71°11' E 029°02'5 9.5
2017-Oct-17 19:00N 71°07' E 029°10'5 9.9
2017-Oct-17 18:30N 71°03' E 029°20'510.3
2017-Oct-17 18:00N 70°59' E 029°30'510.3
2017-Oct-17 17:30N 70°55' E 029°40'510.0
2017-Oct-17 17:00N 70°51' E 029°50'1 2.8
2017-Oct-17 16:30N 70°50' E 029°46'2 3.1
2017-Oct-17 16:00N 70°49' E 029°42'4 7.5
2017-Oct-17 15:30N 70°46' E 029°48'3 7.0
2017-Oct-17 15:00N 70°43' E 029°51'4 7.2
2017-Oct-17 14:30N 70°39' E 029°49'2 3.9
2017-Oct-17 13:55N 70°38' E 029°44'0 0.0
2017-Oct-17 13:25N 70°38' E 029°44'0 0.0
2017-Oct-17 12:55N 70°38' E 029°44'0 0.0
2017-Oct-17 12:25N 70°38' E 029°44'0 0.0
2017-Oct-17 11:55N 70°38' E 029°44'0 0.0
2017-Oct-17 11:25N 70°38' E 029°44'0 0.0
2017-Oct-17 10:49N 70°38' E 029°44'0 0.0
2017-Oct-17 10:25N 70°38' E 029°44'0 0.0
2017-Oct-17 09:55N 70°38' E 029°44'0 0.0
2017-Oct-17 09:25N 70°38' E 029°44'0 0.0
2017-Oct-17 08:55N 70°38' E 029°44'0 0.0
2017-Oct-17 08:25N 70°38' E 029°44'0 0.0
2017-Oct-17 07:55N 70°38' E 029°44'0 0.0
2017-Oct-17 07:25N 70°38' E 029°44'0 0.0
2017-Oct-17 06:49N 70°38' E 029°44'0 0.0
2017-Oct-17 06:25N 70°38' E 029°44'0 0.0
2017-Oct-17 05:55N 70°38' E 029°44'0 0.0
2017-Oct-17 05:25N 70°38' E 029°44'0 0.2
2017-Oct-17 04:55N 70°38' E 029°44'0 0.6
2017-Oct-17 04:26N 70°38' E 029°44'0 0.0
2017-Oct-17 03:56N 70°38' E 029°44'0 0.0
2017-Oct-17 03:26N 70°38' E 029°44'0 0.0
2017-Oct-17 02:56N 70°38' E 029°44'0 0.0
2017-Oct-17 02:26N 70°38' E 029°44'0 0.0
2017-Oct-17 01:56N 70°38' E 029°44'0 0.0
2017-Oct-17 01:26N 70°38' E 029°44'0 0.0
2017-Oct-17 00:56N 70°38' E 029°44'0 0.0
2017-Oct-17 00:26N 70°38' E 029°44'0 0.0
2017-Oct-16 23:56N 70°38' E 029°44'0 0.0
2017-Oct-16 23:26N 70°38' E 029°44'0 0.0
2017-Oct-16 22:56N 70°38' E 029°44'0 0.0
2017-Oct-16 22:26N 70°38' E 029°44'0 0.0
2017-Oct-16 21:56N 70°38' E 029°44'0 0.0
2017-Oct-16 21:26N 70°38' E 029°44'0 0.0
2017-Oct-16 20:56N 70°38' E 029°44'0 0.0
2017-Oct-16 20:26N 70°38' E 029°44'0 0.0
2017-Oct-16 19:56N 70°38' E 029°44'0 0.0
2017-Oct-16 19:26N 70°38' E 029°44'0 0.0
2017-Oct-16 18:56N 70°38' E 029°44'0 0.0
2017-Oct-16 18:20N 70°38' E 029°44'0 0.0
2017-Oct-16 17:50N 70°38' E 029°44'0 0.0
2017-Oct-16 17:20N 70°38' E 029°44'0 0.0
2017-Oct-16 16:56N 70°38' E 029°44'0 0.0
2017-Oct-16 16:26N 70°38' E 029°44'0 0.0
2017-Oct-16 16:00N 70°38' E 029°44'0 0.0
2017-Oct-16 15:24N 70°38' E 029°44'0 0.0
2017-Oct-16 15:00N 70°38' E 029°44'0 0.0
2017-Oct-16 14:00N 70°38' E 029°44'0 0.0
2017-Oct-16 13:30N 70°38' E 029°44'0 0.0
2017-Oct-16 13:00N 70°38' E 029°44'0 0.0
2017-Oct-16 12:30N 70°38' E 029°44'0 0.0
2017-Oct-16 12:00N 70°38' E 029°44'0 0.0
2017-Oct-16 11:30N 70°38' E 029°44'0 0.0
2017-Oct-16 11:00N 70°38' E 029°44'0 0.0
2017-Oct-16 10:30N 70°38' E 029°44'0 0.0
2017-Oct-16 09:48N 70°38' E 029°44'0 0.0
2017-Oct-16 09:30N 70°38' E 029°44'0 0.0
2017-Oct-16 08:54N 70°38' E 029°44'0 0.0
2017-Oct-16 08:30N 70°38' E 029°44'0 0.0
2017-Oct-16 08:00N 70°38' E 029°44'0 0.0
2017-Oct-16 07:30N 70°38' E 029°44'0 0.0
2017-Oct-16 07:00N 70°38' E 029°44'0 0.0
2017-Oct-16 06:24N 70°38' E 029°44'0 0.0
2017-Oct-16 06:00N 70°38' E 029°44'0 0.0
2017-Oct-16 05:30N 70°38' E 029°44'0 0.0
2017-Oct-16 04:54N 70°38' E 029°44'0 0.0
2017-Oct-16 04:30N 70°38' E 029°44'0 0.0
2017-Oct-16 04:00N 70°38' E 029°44'0 0.0
2017-Oct-16 03:30N 70°38' E 029°44'0 0.0
2017-Oct-16 03:00N 70°38' E 029°44'0 0.0
2017-Oct-16 02:30N 70°38' E 029°44'0 0.0
2017-Oct-16 01:54N 70°38' E 029°44'0 0.0
2017-Oct-16 01:30N 70°38' E 029°44'0 0.0
2017-Oct-16 01:00N 70°38' E 029°44'0 0.0
2017-Oct-16 00:30N 70°38' E 029°44'0 0.0
2017-Oct-16 00:00N 70°38' E 029°44'0 0.0
2017-Oct-15 23:24N 70°38' E 029°44'0 0.0
2017-Oct-15 23:00N 70°38' E 029°44'0 0.0
2017-Oct-15 22:30N 70°38' E 029°44'0 0.0
2017-Oct-15 22:00N 70°38' E 029°44'0 0.0
2017-Oct-15 21:24N 70°38' E 029°44'0 0.0
2017-Oct-15 21:00N 70°38' E 029°44'0 0.0
2017-Oct-15 20:30N 70°38' E 029°44'0 0.0
2017-Oct-15 20:00N 70°38' E 029°44'0 0.0
2017-Oct-15 19:30N 70°38' E 029°44'0 0.0
2017-Oct-15 19:00N 70°38' E 029°44'0 0.0
2017-Oct-15 18:30N 70°38' E 029°44'0 0.0
2017-Oct-15 18:00N 70°38' E 029°44'0 0.0
2017-Oct-15 17:30N 70°38' E 029°44'0 0.0
2017-Oct-15 17:00N 70°38' E 029°44'0 0.0
2017-Oct-15 16:30N 70°38' E 029°44'0 0.0
2017-Oct-15 16:00N 70°38' E 029°44'0 0.0
2017-Oct-15 15:24N 70°38' E 029°44'0 0.0
2017-Oct-15 15:00N 70°38' E 029°44'0 0.0
2017-Oct-15 14:00N 70°38' E 029°44'0 0.0
2017-Oct-15 13:30N 70°38' E 029°44'0 0.0
2017-Oct-15 13:00N 70°38' E 029°44'0 0.0
2017-Oct-15 12:30N 70°38' E 029°44'0 0.0
2017-Oct-15 12:00N 70°38' E 029°44'0 0.0
2017-Oct-15 11:30N 70°38' E 029°44'0 0.0
2017-Oct-15 11:00N 70°38' E 029°44'0 0.0
2017-Oct-15 10:30N 70°38' E 029°44'0 0.0
2017-Oct-15 10:00N 70°38' E 029°44'0 0.0
2017-Oct-15 09:30N 70°38' E 029°44'0 0.0
2017-Oct-15 09:00N 70°38' E 029°44'0 0.0
2017-Oct-15 08:30N 70°38' E 029°44'0 0.0
2017-Oct-15 08:00N 70°38' E 029°44'0 0.0
2017-Oct-15 07:24N 70°38' E 029°44'0 0.0
2017-Oct-15 07:00N 70°38' E 029°44'0 0.0
2017-Oct-15 06:24N 70°38' E 029°44'0 0.0
2017-Oct-15 06:00N 70°38' E 029°44'0 0.0
2017-Oct-15 05:30N 70°38' E 029°44'0 0.0
2017-Oct-15 05:00N 70°38' E 029°44'0 0.0
2017-Oct-15 04:30N 70°38' E 029°44'0 0.0
2017-Oct-15 04:00N 70°38' E 029°44'0 0.0
2017-Oct-15 03:30N 70°38' E 029°44'0 0.0
2017-Oct-15 03:00N 70°38' E 029°44'0 0.0
2017-Oct-15 02:30N 70°38' E 029°44'0 0.0
2017-Oct-15 02:00N 70°38' E 029°44'0 0.0
2017-Oct-15 01:30N 70°38' E 029°44'0 0.0
2017-Oct-15 01:00N 70°38' E 029°44'0 0.0
2017-Oct-15 00:30N 70°38' E 029°44'0 0.0
2017-Oct-15 00:00N 70°38' E 029°44'0 0.0
2017-Oct-14 23:30N 70°38' E 029°44'0 0.0
2017-Oct-14 22:54N 70°38' E 029°44'0 0.0
2017-Oct-14 22:30N 70°38' E 029°44'0 0.0
2017-Oct-14 22:00N 70°38' E 029°44'0 0.0
2017-Oct-14 21:30N 70°38' E 029°44'0 0.0
2017-Oct-14 21:00N 70°38' E 029°44'0 0.0
2017-Oct-14 20:30N 70°38' E 029°44'0 0.0
2017-Oct-14 20:00N 70°38' E 029°44'0 0.0
2017-Oct-14 19:30N 70°38' E 029°44'0 0.0
2017-Oct-14 19:00N 70°38' E 029°44'0 0.0
2017-Oct-14 18:30N 70°38' E 029°44'0 0.0
2017-Oct-14 18:00N 70°38' E 029°44'0 0.0
2017-Oct-14 17:30N 70°38' E 029°44'0 0.0
2017-Oct-14 17:00N 70°38' E 029°44'0 0.0
2017-Oct-14 16:30N 70°38' E 029°44'0 0.0
2017-Oct-14 16:00N 70°38' E 029°44'0 0.0
2017-Oct-14 15:30N 70°38' E 029°44'0 0.0
2017-Oct-14 15:00N 70°38' E 029°44'0 0.0
2017-Oct-14 14:24N 70°38' E 029°44'0 0.0
2017-Oct-14 14:00N 70°38' E 029°44'0 0.0
2017-Oct-14 13:30N 70°38' E 029°44'0 0.0
2017-Oct-14 13:00N 70°38' E 029°44'0 0.0
2017-Oct-14 12:30N 70°38' E 029°44'0 0.0
2017-Oct-14 12:00N 70°38' E 029°44'0 0.0
2017-Oct-14 11:12N 70°38' E 029°44'0 0.0
2017-Oct-14 11:00N 70°38' E 029°44'0 0.0
2017-Oct-14 10:30N 70°38' E 029°44'0 0.0
2017-Oct-14 10:00N 70°38' E 029°44'0 0.0
2017-Oct-14 09:30N 70°38' E 029°44'0 0.0
2017-Oct-14 09:00N 70°38' E 029°44'0 0.0
2017-Oct-14 08:30N 70°38' E 029°44'0 0.0
2017-Oct-14 07:54N 70°38' E 029°44'0 0.0
2017-Oct-14 07:24N 70°38' E 029°44'0 0.0
2017-Oct-14 07:00N 70°38' E 029°44'0 0.0
2017-Oct-14 06:30N 70°38' E 029°44'0 0.0
2017-Oct-14 06:00N 70°38' E 029°44'0 0.0
2017-Oct-14 05:30N 70°38' E 029°44'0 0.0
2017-Oct-14 05:00N 70°38' E 029°44'0 0.0
2017-Oct-14 04:30N 70°38' E 029°44'0 0.0
2017-Oct-14 03:54N 70°38' E 029°44'0 0.0
2017-Oct-14 03:30N 70°38' E 029°44'0 0.0
2017-Oct-14 03:00N 70°38' E 029°44'0 0.0
2017-Oct-14 02:30N 70°38' E 029°44'0 0.0
2017-Oct-14 02:00N 70°38' E 029°44'0 0.0
2017-Oct-14 01:30N 70°38' E 029°44'0 0.0
2017-Oct-14 01:00N 70°38' E 029°44'0 0.0
2017-Oct-14 00:30N 70°38' E 029°44'0 0.0
2017-Oct-13 23:54N 70°38' E 029°44'0 0.0
2017-Oct-13 23:30N 70°38' E 029°44'0 0.0
2017-Oct-13 22:54N 70°38' E 029°44'0 0.0
2017-Oct-13 22:30N 70°38' E 029°44'0 0.0
2017-Oct-13 22:00N 70°38' E 029°44'0 0.0
2017-Oct-13 21:30N 70°38' E 029°44'0 0.0
2017-Oct-13 21:00N 70°38' E 029°44'0 0.0
2017-Oct-13 20:30N 70°38' E 029°44'0 0.0
2017-Oct-13 19:54N 70°38' E 029°44'0 0.0
2017-Oct-13 19:30N 70°38' E 029°44'0 0.0
2017-Oct-13 19:00N 70°38' E 029°44'0 0.0
2017-Oct-13 18:30N 70°38' E 029°44'0 0.0
2017-Oct-13 18:00N 70°38' E 029°44'0 0.0
2017-Oct-13 17:30N 70°38' E 029°44'0 0.0
2017-Oct-13 17:00N 70°38' E 029°44'0 0.0
2017-Oct-13 16:30N 70°38' E 029°44'0 0.0
2017-Oct-13 16:00N 70°38' E 029°44'0 0.0
2017-Oct-13 15:30N 70°38' E 029°44'0 0.0
2017-Oct-13 15:00N 70°38' E 029°44'0 0.0
2017-Oct-13 14:30N 70°38' E 029°44'0 0.0
2017-Oct-13 14:00N 70°38' E 029°44'0 0.0
2017-Oct-13 13:30N 70°38' E 029°44'0 0.0
2017-Oct-13 13:00N 70°38' E 029°44'0 0.0
2017-Oct-13 12:24N 70°38' E 029°44'0 0.0
2017-Oct-13 12:00N 70°38' E 029°44'0 0.0
2017-Oct-13 11:30N 70°38' E 029°44'0 0.0
2017-Oct-13 11:00N 70°38' E 029°44'0 0.0
2017-Oct-13 10:30N 70°38' E 029°44'0 0.0
2017-Oct-13 10:00N 70°38' E 029°44'0 0.0
2017-Oct-13 09:30N 70°38' E 029°44'0 0.0
2017-Oct-13 08:42N 70°38' E 029°44'0 0.0
2017-Oct-13 08:30N 70°38' E 029°44'0 0.0
2017-Oct-13 08:00N 70°38' E 029°44'0 0.0
2017-Oct-13 07:30N 70°38' E 029°44'0 0.0
2017-Oct-13 07:00N 70°38' E 029°44'0 0.0
2017-Oct-13 06:30N 70°38' E 029°44'0 0.0
2017-Oct-13 06:00N 70°38' E 029°44'0 0.0
2017-Oct-13 05:30N 70°38' E 029°44'0 0.0
2017-Oct-13 05:00N 70°38' E 029°44'0 0.0
2017-Oct-13 04:24N 70°38' E 029°44'0 0.0
2017-Oct-13 04:00N 70°38' E 029°44'0 0.0
2017-Oct-13 03:30N 70°38' E 029°44'0 0.0
2017-Oct-13 03:00N 70°38' E 029°44'0 0.0
2017-Oct-13 02:30N 70°38' E 029°44'0 0.0
2017-Oct-13 02:00N 70°38' E 029°44'0 0.0
2017-Oct-13 01:30N 70°38' E 029°44'0 0.0
2017-Oct-13 01:00N 70°38' E 029°44'0 0.0
2017-Oct-13 00:24N 70°38' E 029°44'0 0.0
2017-Oct-13 00:00N 70°38' E 029°44'0 0.0
2017-Oct-12 23:30N 70°38' E 029°44'0 0.0
2017-Oct-12 23:00N 70°38' E 029°44'0 0.0
2017-Oct-12 22:24N 70°38' E 029°44'0 0.0
2017-Oct-12 21:54N 70°38' E 029°44'0 0.0
2017-Oct-12 21:24N 70°38' E 029°44'0 0.0
2017-Oct-12 21:00N 70°38' E 029°44'0 0.0
2017-Oct-12 20:30N 70°38' E 029°44'0 0.0
2017-Oct-12 20:00N 70°38' E 029°44'0 0.0
2017-Oct-12 19:30N 70°38' E 029°44'0 0.0
2017-Oct-12 19:00N 70°38' E 029°44'0 0.0
2017-Oct-12 18:30N 70°38' E 029°44'0 0.0
2017-Oct-12 18:00N 70°38' E 029°44'0 0.0
2017-Oct-12 17:30N 70°38' E 029°44'0 0.0
2017-Oct-12 17:00N 70°38' E 029°44'0 0.0
2017-Oct-12 16:18N 70°38' E 029°44'0 0.0
2017-Oct-12 16:00N 70°38' E 029°44'0 0.0
2017-Oct-12 15:30N 70°38' E 029°44'0 0.0
2017-Oct-12 15:00N 70°38' E 029°44'0 0.0
2017-Oct-12 14:30N 70°38' E 029°44'0 0.0
2017-Oct-12 14:00N 70°38' E 029°44'0 0.0
2017-Oct-12 13:30N 70°38' E 029°44'0 0.0
2017-Oct-12 13:00N 70°38' E 029°44'0 0.0
2017-Oct-12 12:30N 70°38' E 029°44'0 0.0
2017-Oct-12 11:54N 70°38' E 029°44'0 0.0
2017-Oct-12 11:30N 70°38' E 029°44'0 0.0
2017-Oct-12 11:00N 70°38' E 029°44'0 0.0
2017-Oct-12 10:24N 70°38' E 029°44'0 0.0
2017-Oct-12 10:00N 70°38' E 029°44'0 0.0
2017-Oct-12 09:30N 70°38' E 029°44'0 0.0
2017-Oct-12 09:00N 70°38' E 029°44'0 0.0
2017-Oct-12 08:30N 70°38' E 029°44'0 0.0
2017-Oct-12 08:00N 70°38' E 029°44'0 0.0
2017-Oct-12 07:30N 70°38' E 029°44'0 0.0
2017-Oct-12 07:00N 70°38' E 029°44'0 0.0
2017-Oct-12 06:30N 70°38' E 029°44'0 0.0
2017-Oct-12 05:54N 70°38' E 029°44'0 0.0
2017-Oct-12 05:30N 70°38' E 029°44'0 0.0
2017-Oct-12 05:00N 70°38' E 029°44'0 0.0
2017-Oct-12 04:30N 70°38' E 029°44'0 0.0
2017-Oct-12 04:00N 70°38' E 029°44'0 0.0
2017-Oct-12 03:30N 70°38' E 029°44'0 0.0
2017-Oct-12 03:00N 70°38' E 029°44'0 0.0
2017-Oct-12 02:30N 70°38' E 029°44'0 0.0
2017-Oct-12 02:00N 70°38' E 029°44'0 0.0
2017-Oct-12 01:30N 70°38' E 029°44'0 0.0
2017-Oct-12 01:00N 70°38' E 029°44'0 0.0
2017-Oct-12 00:30N 70°38' E 029°44'0 0.0
2017-Oct-12 00:00N 70°38' E 029°44'0 0.0
2017-Oct-11 23:30N 70°38' E 029°44'0 0.0
2017-Oct-11 22:48N 70°38' E 029°44'0 0.0
2017-Oct-11 22:30N 70°38' E 029°44'0 0.0
2017-Oct-11 22:00N 70°38' E 029°44'0 0.0
2017-Oct-11 21:30N 70°38' E 029°44'0 0.0
2017-Oct-11 21:00N 70°38' E 029°44'0 0.0
2017-Oct-11 20:30N 70°38' E 029°44'0 0.0
2017-Oct-11 20:00N 70°38' E 029°44'0 0.0
2017-Oct-11 19:30N 70°38' E 029°44'0 0.0
2017-Oct-11 19:00N 70°38' E 029°44'0 0.0
2017-Oct-11 18:30N 70°38' E 029°44'0 0.0
2017-Oct-11 18:00N 70°38' E 029°44'0 0.0
2017-Oct-11 17:30N 70°38' E 029°44'0 0.0
2017-Oct-11 16:48N 70°38' E 029°44'0 0.0
2017-Oct-10 23:48N 70°38' E 029°44'0 0.0
2017-Oct-10 23:30N 70°38' E 029°44'0 0.0
2017-Oct-10 23:00N 70°38' E 029°44'0 0.0
2017-Oct-10 22:30N 70°38' E 029°44'0 0.0
2017-Oct-10 22:00N 70°38' E 029°44'0 0.0
2017-Oct-10 21:18N 70°38' E 029°44'0 0.0
2017-Oct-10 21:00N 70°38' E 029°44'0 0.0
2017-Oct-10 20:30N 70°38' E 029°44'0 0.0
2017-Oct-10 20:00N 70°38' E 029°44'0 0.0
2017-Oct-10 19:30N 70°38' E 029°44'0 0.0
2017-Oct-10 19:00N 70°38' E 029°44'0 0.0
2017-Oct-10 18:30N 70°38' E 029°44'0 0.0
2017-Oct-10 18:00N 70°38' E 029°44'0 0.0
2017-Oct-10 17:30N 70°38' E 029°44'0 0.0
2017-Oct-10 17:00N 70°38' E 029°44'0 0.0
2017-Oct-10 16:30N 70°38' E 029°44'0 0.0
2017-Oct-10 16:00N 70°38' E 029°44'0 0.0
2017-Oct-10 15:30N 70°38' E 029°44'0 0.0
2017-Oct-10 14:48N 70°38' E 029°44'0 0.0
2017-Oct-10 14:00N 70°38' E 029°44'0 0.0
2017-Oct-10 13:30N 70°38' E 029°44'0 0.0
2017-Oct-10 13:00N 70°38' E 029°44'0 0.0
2017-Oct-10 12:30N 70°38' E 029°44'0 0.0
2017-Oct-10 11:54N 70°38' E 029°44'0 0.0
2017-Oct-10 11:30N 70°38' E 029°44'0 0.0
2017-Oct-10 11:00N 70°38' E 029°44'0 0.0
2017-Oct-10 10:30N 70°38' E 029°44'0 0.0
2017-Oct-10 10:00N 70°38' E 029°44'0 0.0
2017-Oct-10 09:30N 70°38' E 029°44'0 0.0
2017-Oct-10 09:00N 70°38' E 029°44'0 0.0
2017-Oct-10 08:30N 70°38' E 029°44'0 0.0
2017-Oct-10 08:00N 70°38' E 029°44'0 0.0
2017-Oct-10 07:30N 70°38' E 029°44'0 0.0
2017-Oct-10 07:00N 70°38' E 029°44'0 0.0
2017-Oct-10 06:30N 70°38' E 029°44'0 0.0
2017-Oct-10 06:00N 70°38' E 029°44'0 0.0
2017-Oct-10 05:30N 70°38' E 029°44'0 0.0
2017-Oct-10 05:00N 70°38' E 029°44'0 0.0
2017-Oct-10 04:30N 70°38' E 029°44'0 0.0
2017-Oct-10 04:00N 70°38' E 029°44'0 0.0
2017-Oct-10 03:30N 70°38' E 029°44'0 0.0
2017-Oct-10 03:00N 70°38' E 029°44'0 0.0
2017-Oct-10 02:30N 70°38' E 029°44'0 0.0
2017-Oct-10 02:00N 70°38' E 029°44'0 0.0
2017-Oct-10 01:30N 70°38' E 029°44'0 0.0
2017-Oct-10 01:00N 70°38' E 029°44'0 0.0
2017-Oct-10 00:30N 70°38' E 029°44'0 0.0
2017-Oct-10 00:00N 70°38' E 029°44'0 0.0
2017-Oct-09 23:30N 70°38' E 029°44'0 0.0
2017-Oct-09 23:00N 70°38' E 029°44'0 0.0
2017-Oct-09 22:30N 70°38' E 029°44'0 0.0
2017-Oct-09 22:00N 70°38' E 029°44'0 0.0
2017-Oct-09 21:30N 70°38' E 029°44'0 0.0
2017-Oct-09 21:00N 70°38' E 029°44'0 0.0
2017-Oct-09 20:30N 70°38' E 029°44'0 0.0
2017-Oct-09 20:00N 70°38' E 029°44'0 0.0
2017-Oct-09 19:30N 70°38' E 029°44'0 0.0
2017-Oct-09 19:00N 70°38' E 029°44'0 0.0
2017-Oct-09 18:30N 70°38' E 029°44'0 0.0
2017-Oct-09 18:00N 70°38' E 029°44'0 0.0
2017-Oct-09 17:30N 70°38' E 029°44'0 0.0
2017-Oct-09 17:00N 70°38' E 029°44'0 0.0
2017-Oct-09 16:30N 70°38' E 029°44'0 0.0
2017-Oct-09 16:00N 70°38' E 029°44'0 0.0
2017-Oct-09 15:24N 70°38' E 029°44'0 0.0
2017-Oct-09 15:00N 70°38' E 029°44'0 0.0
2017-Oct-09 14:30N 70°38' E 029°44'0 0.0
2017-Oct-09 13:54N 70°38' E 029°44'0 0.0
2017-Oct-09 13:24N 70°38' E 029°44'0 0.0
2017-Oct-09 12:54N 70°38' E 029°44'0 0.0
2017-Oct-09 12:30N 70°38' E 029°44'0 0.0
2017-Oct-09 11:54N 70°38' E 029°44'0 0.0
2017-Oct-09 11:30N 70°38' E 029°44'0 0.0
2017-Oct-09 10:54N 70°38' E 029°44'0 0.0
2017-Oct-09 10:30N 70°38' E 029°44'0 0.0
2017-Oct-09 10:00N 70°38' E 029°44'0 0.0
2017-Oct-09 09:30N 70°38' E 029°44'0 0.0
2017-Oct-09 09:00N 70°38' E 029°44'0 0.0
2017-Oct-09 08:30N 70°38' E 029°44'0 0.0
2017-Oct-09 08:00N 70°38' E 029°44'0 0.0
2017-Oct-09 07:30N 70°38' E 029°44'0 0.0
2017-Oct-09 07:00N 70°38' E 029°44'0 0.0
2017-Oct-09 06:30N 70°38' E 029°44'0 0.0
2017-Oct-09 06:00N 70°38' E 029°44'0 0.0
2017-Oct-09 05:30N 70°38' E 029°44'0 0.0
2017-Oct-09 05:00N 70°38' E 029°44'0 0.0
2017-Oct-09 04:30N 70°38' E 029°44'0 0.0
2017-Oct-09 04:00N 70°38' E 029°44'0 0.0
2017-Oct-09 03:24N 70°38' E 029°44'0 0.0
2017-Oct-09 03:00N 70°38' E 029°44'0 0.0
2017-Oct-09 02:30N 70°38' E 029°44'0 0.0
2017-Oct-09 02:00N 70°38' E 029°44'0 0.0
2017-Oct-09 01:30N 70°38' E 029°44'0 0.0
2017-Oct-09 01:00N 70°38' E 029°44'0 0.0
2017-Oct-09 00:30N 70°38' E 029°44'0 0.0
2017-Oct-09 00:00N 70°38' E 029°44'0 0.0
2017-Oct-08 23:24N 70°38' E 029°44'0 0.0
2017-Oct-08 23:00N 70°38' E 029°44'0 0.0
2017-Oct-08 22:30N 70°38' E 029°44'0 0.0
2017-Oct-08 22:00N 70°38' E 029°44'0 0.0
2017-Oct-08 21:30N 70°38' E 029°44'0 0.0
2017-Oct-08 21:00N 70°38' E 029°44'0 0.0
2017-Oct-08 20:30N 70°38' E 029°44'0 0.0
2017-Oct-08 20:00N 70°38' E 029°44'0 0.0
2017-Oct-08 19:30N 70°38' E 029°44'0 0.0
2017-Oct-08 19:00N 70°38' E 029°44'0 0.0
2017-Oct-08 18:30N 70°38' E 029°44'0 0.0
2017-Oct-08 18:00N 70°38' E 029°44'0 0.0
2017-Oct-08 17:30N 70°38' E 029°44'0 0.0
2017-Oct-08 17:00N 70°38' E 029°44'0 0.0
2017-Oct-08 16:30N 70°38' E 029°44'0 0.0
2017-Oct-08 16:00N 70°38' E 029°44'0 0.0
2017-Oct-08 15:30N 70°38' E 029°44'0 0.0
2017-Oct-08 15:00N 70°38' E 029°44'0 0.0
2017-Oct-08 14:30N 70°38' E 029°44'0 0.0
2017-Oct-08 14:00N 70°38' E 029°44'0 0.0
2017-Oct-08 13:30N 70°38' E 029°44'0 0.0
2017-Oct-08 13:00N 70°38' E 029°44'0 0.0
2017-Oct-08 12:30N 70°38' E 029°44'0 0.0
2017-Oct-08 12:00N 70°38' E 029°44'0 0.0
2017-Oct-08 11:30N 70°38' E 029°44'0 0.0
2017-Oct-08 11:00N 70°38' E 029°44'0 0.0
2017-Oct-08 10:30N 70°38' E 029°44'0 0.0
2017-Oct-08 10:00N 70°38' E 029°44'0 0.0
2017-Oct-08 09:30N 70°38' E 029°44'0 0.0
2017-Oct-08 09:00N 70°38' E 029°44'0 0.0
2017-Oct-08 08:30N 70°38' E 029°44'0 0.0
2017-Oct-08 08:00N 70°38' E 029°44'0 0.0
2017-Oct-08 07:30N 70°38' E 029°44'0 0.0
2017-Oct-08 07:00N 70°38' E 029°44'0 0.0
2017-Oct-08 06:30N 70°38' E 029°44'0 0.0
2017-Oct-08 05:54N 70°38' E 029°44'0 0.0
2017-Oct-08 05:30N 70°38' E 029°44'0 0.0
2017-Oct-08 05:00N 70°38' E 029°44'0 0.0
2017-Oct-08 04:24N 70°38' E 029°44'0 0.0
2017-Oct-08 04:00N 70°38' E 029°44'0 0.0
2017-Oct-08 03:30N 70°38' E 029°44'0 0.0
2017-Oct-08 03:00N 70°38' E 029°44'0 0.0
2017-Oct-08 02:30N 70°38' E 029°44'0 0.0
2017-Oct-08 02:00N 70°38' E 029°44'0 0.0
2017-Oct-08 01:30N 70°38' E 029°44'0 0.0
2017-Oct-08 01:00N 70°38' E 029°44'0 0.0
2017-Oct-08 00:30N 70°38' E 029°44'0 0.0
2017-Oct-07 23:54N 70°38' E 029°44'0 0.0
2017-Oct-07 23:30N 70°38' E 029°44'0 0.0
2017-Oct-07 23:00N 70°38' E 029°44'0 0.0
2017-Oct-07 22:30N 70°38' E 029°44'0 0.0
2017-Oct-07 21:54N 70°38' E 029°44'  
Track history (hours):
 
Tides and Currents Weather Stations Pressure Air Temp Water Temp Dewpoint Dewpoint Depression Visibility Wind Speed Wind Dir Waves Ship Positions

Komarno

Last reported at 2017-Oct-17 21:52 UTC. Time now 2017-Oct-19 16:21 UTC.
Position N 71°27' E 028°10'.

Length 54 m; draft 5.5 m.

Type: Fishing. MMSI: 273517900.

Date/timePositionNaut miles runAvg speedWind from/ knotsBaromVisibWave heightAir tempDewpointWater temp
2017-Oct-17 21:52N 71°27' E 028°10'410.3
2017-Oct-17 21:30N 71°24' E 028°19'510.2
2017-Oct-17 20:59N 71°21' E 028°31'5 9.6
2017-Oct-17 20:29N 71°18' E 028°43'5 9.7
2017-Oct-17 20:00N 71°15' E 028°54'5 9.6
2017-Oct-17 19:30N 71°11' E 029°02'5 9.5
2017-Oct-17 19:00N 71°07' E 029°10'5 9.9
2017-Oct-17 18:30N 71°03' E 029°20'510.3
2017-Oct-17 18:00N 70°59' E 029°30'510.3
2017-Oct-17 17:30N 70°55' E 029°40'510.0
2017-Oct-17 17:00N 70°51' E 029°50'1 2.8
2017-Oct-17 16:30N 70°50' E 029°46'2 3.1
2017-Oct-17 16:00N 70°49' E 029°42'4 7.5
2017-Oct-17 15:30N 70°46' E 029°48'3 7.0
2017-Oct-17 15:00N 70°43' E 029°51'4 7.2
2017-Oct-17 14:30N 70°39' E 029°49'2 3.9
2017-Oct-17 13:55N 70°38' E 029°44'0 0.0
2017-Oct-17 13:25N 70°38' E 029°44'0 0.0
2017-Oct-17 12:55N 70°38' E 029°44'0 0.0
2017-Oct-17 12:25N 70°38' E 029°44'0 0.0
2017-Oct-17 11:55N 70°38' E 029°44'0 0.0
2017-Oct-17 11:25N 70°38' E 029°44'0 0.0
2017-Oct-17 10:49N 70°38' E 029°44'0 0.0
2017-Oct-17 10:25N 70°38' E 029°44'0 0.0
2017-Oct-17 09:55N 70°38' E 029°44'0 0.0
2017-Oct-17 09:25N 70°38' E 029°44'0 0.0
2017-Oct-17 08:55N 70°38' E 029°44'0 0.0
2017-Oct-17 08:25N 70°38' E 029°44'0 0.0
2017-Oct-17 07:55N 70°38' E 029°44'0 0.0
2017-Oct-17 07:25N 70°38' E 029°44'0 0.0
2017-Oct-17 06:49N 70°38' E 029°44'0 0.0
2017-Oct-17 06:25N 70°38' E 029°44'0 0.0
2017-Oct-17 05:55N 70°38' E 029°44'0 0.0
2017-Oct-17 05:25N 70°38' E 029°44'0 0.2
2017-Oct-17 04:55N 70°38' E 029°44'0 0.6
2017-Oct-17 04:26N 70°38' E 029°44'0 0.0
2017-Oct-17 03:56N 70°38' E 029°44'0 0.0
2017-Oct-17 03:26N 70°38' E 029°44'0 0.0
2017-Oct-17 02:56N 70°38' E 029°44'0 0.0
2017-Oct-17 02:26N 70°38' E 029°44'0 0.0
2017-Oct-17 01:56N 70°38' E 029°44'0 0.0
2017-Oct-17 01:26N 70°38' E 029°44'0 0.0
2017-Oct-17 00:56N 70°38' E 029°44'0 0.0
2017-Oct-17 00:26N 70°38' E 029°44'0 0.0
2017-Oct-16 23:56N 70°38' E 029°44'0 0.0
2017-Oct-16 23:26N 70°38' E 029°44'0 0.0
2017-Oct-16 22:56N 70°38' E 029°44'0 0.0
2017-Oct-16 22:26N 70°38' E 029°44'0 0.0
2017-Oct-16 21:56N 70°38' E 029°44'0 0.0
2017-Oct-16 21:26N 70°38' E 029°44'0 0.0
2017-Oct-16 20:56N 70°38' E 029°44'0 0.0
2017-Oct-16 20:26N 70°38' E 029°44'0 0.0
2017-Oct-16 19:56N 70°38' E 029°44'0 0.0
2017-Oct-16 19:26N 70°38' E 029°44'0 0.0
2017-Oct-16 18:56N 70°38' E 029°44'0 0.0
2017-Oct-16 18:20N 70°38' E 029°44'0 0.0
2017-Oct-16 17:50N 70°38' E 029°44'0 0.0
2017-Oct-16 17:20N 70°38' E 029°44'0 0.0
2017-Oct-16 16:56N 70°38' E 029°44'0 0.0
2017-Oct-16 16:26N 70°38' E 029°44'0 0.0
2017-Oct-16 16:00N 70°38' E 029°44'0 0.0
2017-Oct-16 15:24N 70°38' E 029°44'0 0.0
2017-Oct-16 15:00N 70°38' E 029°44'0 0.0
2017-Oct-16 14:00N 70°38' E 029°44'0 0.0
2017-Oct-16 13:30N 70°38' E 029°44'0 0.0
2017-Oct-16 13:00N 70°38' E 029°44'0 0.0
2017-Oct-16 12:30N 70°38' E 029°44'0 0.0
2017-Oct-16 12:00N 70°38' E 029°44'0 0.0
2017-Oct-16 11:30N 70°38' E 029°44'0 0.0
2017-Oct-16 11:00N 70°38' E 029°44'0 0.0
2017-Oct-16 10:30N 70°38' E 029°44'0 0.0
2017-Oct-16 09:48N 70°38' E 029°44'0 0.0
2017-Oct-16 09:30N 70°38' E 029°44'0 0.0
2017-Oct-16 08:54N 70°38' E 029°44'0 0.0
2017-Oct-16 08:30N 70°38' E 029°44'0 0.0
2017-Oct-16 08:00N 70°38' E 029°44'0 0.0
2017-Oct-16 07:30N 70°38' E 029°44'0 0.0
2017-Oct-16 07:00N 70°38' E 029°44'0 0.0
2017-Oct-16 06:24N 70°38' E 029°44'0 0.0
2017-Oct-16 06:00N 70°38' E 029°44'0 0.0
2017-Oct-16 05:30N 70°38' E 029°44'0 0.0
2017-Oct-16 04:54N 70°38' E 029°44'0 0.0
2017-Oct-16 04:30N 70°38' E 029°44'0 0.0
2017-Oct-16 04:00N 70°38' E 029°44'0 0.0
2017-Oct-16 03:30N 70°38' E 029°44'0 0.0
2017-Oct-16 03:00N 70°38' E 029°44'0 0.0
2017-Oct-16 02:30N 70°38' E 029°44'0 0.0
2017-Oct-16 01:54N 70°38' E 029°44'0 0.0
2017-Oct-16 01:30N 70°38' E 029°44'0 0.0
2017-Oct-16 01:00N 70°38' E 029°44'0 0.0
2017-Oct-16 00:30N 70°38' E 029°44'0 0.0
2017-Oct-16 00:00N 70°38' E 029°44'0 0.0
2017-Oct-15 23:24N 70°38' E 029°44'0 0.0
2017-Oct-15 23:00N 70°38' E 029°44'0 0.0
2017-Oct-15 22:30N 70°38' E 029°44'0 0.0
2017-Oct-15 22:00N 70°38' E 029°44'0 0.0
2017-Oct-15 21:24N 70°38' E 029°44'0 0.0
2017-Oct-15 21:00N 70°38' E 029°44'0 0.0
2017-Oct-15 20:30N 70°38' E 029°44'0 0.0
2017-Oct-15 20:00N 70°38' E 029°44'0 0.0
2017-Oct-15 19:30N 70°38' E 029°44'0 0.0
2017-Oct-15 19:00N 70°38' E 029°44'0 0.0
2017-Oct-15 18:30N 70°38' E 029°44'0 0.0
2017-Oct-15 18:00N 70°38' E 029°44'0 0.0
2017-Oct-15 17:30N 70°38' E 029°44'0 0.0
2017-Oct-15 17:00N 70°38' E 029°44'0 0.0
2017-Oct-15 16:30N 70°38' E 029°44'0 0.0
2017-Oct-15 16:00N 70°38' E 029°44'0 0.0
2017-Oct-15 15:24N 70°38' E 029°44'0 0.0
2017-Oct-15 15:00N 70°38' E 029°44'0 0.0
2017-Oct-15 14:00N 70°38' E 029°44'0 0.0
2017-Oct-15 13:30N 70°38' E 029°44'0 0.0
2017-Oct-15 13:00N 70°38' E 029°44'0 0.0
2017-Oct-15 12:30N 70°38' E 029°44'0 0.0
2017-Oct-15 12:00N 70°38' E 029°44'0 0.0
2017-Oct-15 11:30N 70°38' E 029°44'0 0.0
2017-Oct-15 11:00N 70°38' E 029°44'0 0.0
2017-Oct-15 10:30N 70°38' E 029°44'0 0.0
2017-Oct-15 10:00N 70°38' E 029°44'0 0.0
2017-Oct-15 09:30N 70°38' E 029°44'0 0.0
2017-Oct-15 09:00N 70°38' E 029°44'0 0.0
2017-Oct-15 08:30N 70°38' E 029°44'0 0.0
2017-Oct-15 08:00N 70°38' E 029°44'0 0.0
2017-Oct-15 07:24N 70°38' E 029°44'0 0.0
2017-Oct-15 07:00N 70°38' E 029°44'0 0.0
2017-Oct-15 06:24N 70°38' E 029°44'0 0.0
2017-Oct-15 06:00N 70°38' E 029°44'0 0.0
2017-Oct-15 05:30N 70°38' E 029°44'0 0.0
2017-Oct-15 05:00N 70°38' E 029°44'0 0.0
2017-Oct-15 04:30N 70°38' E 029°44'0 0.0
2017-Oct-15 04:00N 70°38' E 029°44'0 0.0
2017-Oct-15 03:30N 70°38' E 029°44'0 0.0
2017-Oct-15 03:00N 70°38' E 029°44'0 0.0
2017-Oct-15 02:30N 70°38' E 029°44'0 0.0
2017-Oct-15 02:00N 70°38' E 029°44'0 0.0
2017-Oct-15 01:30N 70°38' E 029°44'0 0.0
2017-Oct-15 01:00N 70°38' E 029°44'0 0.0
2017-Oct-15 00:30N 70°38' E 029°44'0 0.0
2017-Oct-15 00:00N 70°38' E 029°44'0 0.0
2017-Oct-14 23:30N 70°38' E 029°44'0 0.0
2017-Oct-14 22:54N 70°38' E 029°44'0 0.0
2017-Oct-14 22:30N 70°38' E 029°44'0 0.0
2017-Oct-14 22:00N 70°38' E 029°44'0 0.0
2017-Oct-14 21:30N 70°38' E 029°44'0 0.0
2017-Oct-14 21:00N 70°38' E 029°44'0 0.0
2017-Oct-14 20:30N 70°38' E 029°44'0 0.0
2017-Oct-14 20:00N 70°38' E 029°44'0 0.0
2017-Oct-14 19:30N 70°38' E 029°44'0 0.0
2017-Oct-14 19:00N 70°38' E 029°44'0 0.0
2017-Oct-14 18:30N 70°38' E 029°44'0 0.0
2017-Oct-14 18:00N 70°38' E 029°44'0 0.0
2017-Oct-14 17:30N 70°38' E 029°44'0 0.0
2017-Oct-14 17:00N 70°38' E 029°44'0 0.0
2017-Oct-14 16:30N 70°38' E 029°44'0 0.0
2017-Oct-14 16:00N 70°38' E 029°44'0 0.0
2017-Oct-14 15:30N 70°38' E 029°44'0 0.0
2017-Oct-14 15:00N 70°38' E 029°44'0 0.0
2017-Oct-14 14:24N 70°38' E 029°44'0 0.0
2017-Oct-14 14:00N 70°38' E 029°44'0 0.0
2017-Oct-14 13:30N 70°38' E 029°44'0 0.0
2017-Oct-14 13:00N 70°38' E 029°44'0 0.0
2017-Oct-14 12:30N 70°38' E 029°44'0 0.0
2017-Oct-14 12:00N 70°38' E 029°44'0 0.0
2017-Oct-14 11:12N 70°38' E 029°44'0 0.0
2017-Oct-14 11:00N 70°38' E 029°44'0 0.0
2017-Oct-14 10:30N 70°38' E 029°44'0 0.0
2017-Oct-14 10:00N 70°38' E 029°44'0 0.0
2017-Oct-14 09:30N 70°38' E 029°44'0 0.0
2017-Oct-14 09:00N 70°38' E 029°44'0 0.0
2017-Oct-14 08:30N 70°38' E 029°44'0 0.0
2017-Oct-14 07:54N 70°38' E 029°44'0 0.0
2017-Oct-14 07:24N 70°38' E 029°44'0 0.0
2017-Oct-14 07:00N 70°38' E 029°44'0 0.0
2017-Oct-14 06:30N 70°38' E 029°44'0 0.0
2017-Oct-14 06:00N 70°38' E 029°44'0 0.0
2017-Oct-14 05:30N 70°38' E 029°44'0 0.0
2017-Oct-14 05:00N 70°38' E 029°44'0 0.0
2017-Oct-14 04:30N 70°38' E 029°44'0 0.0
2017-Oct-14 03:54N 70°38' E 029°44'0 0.0
2017-Oct-14 03:30N 70°38' E 029°44'0 0.0
2017-Oct-14 03:00N 70°38' E 029°44'0 0.0
2017-Oct-14 02:30N 70°38' E 029°44'0 0.0
2017-Oct-14 02:00N 70°38' E 029°44'0 0.0
2017-Oct-14 01:30N 70°38' E 029°44'0 0.0
2017-Oct-14 01:00N 70°38' E 029°44'0 0.0
2017-Oct-14 00:30N 70°38' E 029°44'0 0.0
2017-Oct-13 23:54N 70°38' E 029°44'0 0.0
2017-Oct-13 23:30N 70°38' E 029°44'0 0.0
2017-Oct-13 22:54N 70°38' E 029°44'0 0.0
2017-Oct-13 22:30N 70°38' E 029°44'0 0.0
2017-Oct-13 22:00N 70°38' E 029°44'0 0.0
2017-Oct-13 21:30N 70°38' E 029°44'0 0.0
2017-Oct-13 21:00N 70°38' E 029°44'0 0.0
2017-Oct-13 20:30N 70°38' E 029°44'0 0.0
2017-Oct-13 19:54N 70°38' E 029°44'0 0.0
2017-Oct-13 19:30N 70°38' E 029°44'0 0.0
2017-Oct-13 19:00N 70°38' E 029°44'0 0.0
2017-Oct-13 18:30N 70°38' E 029°44'0 0.0
2017-Oct-13 18:00N 70°38' E 029°44'0 0.0
2017-Oct-13 17:30N 70°38' E 029°44'0 0.0
2017-Oct-13 17:00N 70°38' E 029°44'0 0.0
2017-Oct-13 16:30N 70°38' E 029°44'0 0.0
2017-Oct-13 16:00N 70°38' E 029°44'0 0.0
2017-Oct-13 15:30N 70°38' E 029°44'0 0.0
2017-Oct-13 15:00N 70°38' E 029°44'0 0.0
2017-Oct-13 14:30N 70°38' E 029°44'0 0.0
2017-Oct-13 14:00N 70°38' E 029°44'0 0.0
2017-Oct-13 13:30N 70°38' E 029°44'0 0.0
2017-Oct-13 13:00N 70°38' E 029°44'0 0.0
2017-Oct-13 12:24N 70°38' E 029°44'0 0.0
2017-Oct-13 12:00N 70°38' E 029°44'0 0.0
2017-Oct-13 11:30N 70°38' E 029°44'0 0.0
2017-Oct-13 11:00N 70°38' E 029°44'0 0.0
2017-Oct-13 10:30N 70°38' E 029°44'0 0.0
2017-Oct-13 10:00N 70°38' E 029°44'0 0.0
2017-Oct-13 09:30N 70°38' E 029°44'0 0.0
2017-Oct-13 08:42N 70°38' E 029°44'0 0.0
2017-Oct-13 08:30N 70°38' E 029°44'0 0.0
2017-Oct-13 08:00N 70°38' E 029°44'0 0.0
2017-Oct-13 07:30N 70°38' E 029°44'0 0.0
2017-Oct-13 07:00N 70°38' E 029°44'0 0.0
2017-Oct-13 06:30N 70°38' E 029°44'0 0.0
2017-Oct-13 06:00N 70°38' E 029°44'0 0.0
2017-Oct-13 05:30N 70°38' E 029°44'0 0.0
2017-Oct-13 05:00N 70°38' E 029°44'0 0.0
2017-Oct-13 04:24N 70°38' E 029°44'0 0.0
2017-Oct-13 04:00N 70°38' E 029°44'0 0.0
2017-Oct-13 03:30N 70°38' E 029°44'0 0.0
2017-Oct-13 03:00N 70°38' E 029°44'0 0.0
2017-Oct-13 02:30N 70°38' E 029°44'0 0.0
2017-Oct-13 02:00N 70°38' E 029°44'0 0.0
2017-Oct-13 01:30N 70°38' E 029°44'0 0.0
2017-Oct-13 01:00N 70°38' E 029°44'0 0.0
2017-Oct-13 00:24N 70°38' E 029°44'0 0.0
2017-Oct-13 00:00N 70°38' E 029°44'0 0.0
2017-Oct-12 23:30N 70°38' E 029°44'0 0.0
2017-Oct-12 23:00N 70°38' E 029°44'0 0.0
2017-Oct-12 22:24N 70°38' E 029°44'0 0.0
2017-Oct-12 21:54N 70°38' E 029°44'0 0.0
2017-Oct-12 21:24N 70°38' E 029°44'0 0.0
2017-Oct-12 21:00N 70°38' E 029°44'0 0.0
2017-Oct-12 20:30N 70°38' E 029°44'0 0.0
2017-Oct-12 20:00N 70°38' E 029°44'0 0.0
2017-Oct-12 19:30N 70°38' E 029°44'0 0.0
2017-Oct-12 19:00N 70°38' E 029°44'0 0.0
2017-Oct-12 18:30N 70°38' E 029°44'0 0.0
2017-Oct-12 18:00N 70°38' E 029°44'0 0.0
2017-Oct-12 17:30N 70°38' E 029°44'0 0.0
2017-Oct-12 17:00N 70°38' E 029°44'0 0.0
2017-Oct-12 16:18N 70°38' E 029°44'0 0.0
2017-Oct-12 16:00N 70°38' E 029°44'0 0.0
2017-Oct-12 15:30N 70°38' E 029°44'0 0.0
2017-Oct-12 15:00N 70°38' E 029°44'0 0.0
2017-Oct-12 14:30N 70°38' E 029°44'0 0.0
2017-Oct-12 14:00N 70°38' E 029°44'0 0.0
2017-Oct-12 13:30N 70°38' E 029°44'0 0.0
2017-Oct-12 13:00N 70°38' E 029°44'0 0.0
2017-Oct-12 12:30N 70°38' E 029°44'0 0.0
2017-Oct-12 11:54N 70°38' E 029°44'0 0.0
2017-Oct-12 11:30N 70°38' E 029°44'0 0.0
2017-Oct-12 11:00N 70°38' E 029°44'0 0.0
2017-Oct-12 10:24N 70°38' E 029°44'0 0.0
2017-Oct-12 10:00N 70°38' E 029°44'0 0.0
2017-Oct-12 09:30N 70°38' E 029°44'0 0.0
2017-Oct-12 09:00N 70°38' E 029°44'0 0.0
2017-Oct-12 08:30N 70°38' E 029°44'0 0.0
2017-Oct-12 08:00N 70°38' E 029°44'0 0.0
2017-Oct-12 07:30N 70°38' E 029°44'0 0.0
2017-Oct-12 07:00N 70°38' E 029°44'0 0.0
2017-Oct-12 06:30N 70°38' E 029°44'0 0.0
2017-Oct-12 05:54N 70°38' E 029°44'0 0.0
2017-Oct-12 05:30N 70°38' E 029°44'0 0.0
2017-Oct-12 05:00N 70°38' E 029°44'0 0.0
2017-Oct-12 04:30N 70°38' E 029°44'0 0.0
2017-Oct-12 04:00N 70°38' E 029°44'0 0.0
2017-Oct-12 03:30N 70°38' E 029°44'0 0.0
2017-Oct-12 03:00N 70°38' E 029°44'0 0.0
2017-Oct-12 02:30N 70°38' E 029°44'0 0.0
2017-Oct-12 02:00N 70°38' E 029°44'0 0.0
2017-Oct-12 01:30N 70°38' E 029°44'0 0.0
2017-Oct-12 01:00N 70°38' E 029°44'0 0.0
2017-Oct-12 00:30N 70°38' E 029°44'0 0.0
2017-Oct-12 00:00N 70°38' E 029°44'0 0.0
2017-Oct-11 23:30N 70°38' E 029°44'0 0.0
2017-Oct-11 22:48N 70°38' E 029°44'0 0.0
2017-Oct-11 22:30N 70°38' E 029°44'0 0.0
2017-Oct-11 22:00N 70°38' E 029°44'0 0.0
2017-Oct-11 21:30N 70°38' E 029°44'0 0.0
2017-Oct-11 21:00N 70°38' E 029°44'0 0.0
2017-Oct-11 20:30N 70°38' E 029°44'0 0.0
2017-Oct-11 20:00N 70°38' E 029°44'0 0.0
2017-Oct-11 19:30N 70°38' E 029°44'0 0.0
2017-Oct-11 19:00N 70°38' E 029°44'0 0.0
2017-Oct-11 18:30N 70°38' E 029°44'0 0.0
2017-Oct-11 18:00N 70°38' E 029°44'0 0.0
2017-Oct-11 17:30N 70°38' E 029°44'0 0.0
2017-Oct-11 16:48N 70°38' E 029°44'0 0.0
2017-Oct-10 23:48N 70°38' E 029°44'0 0.0
2017-Oct-10 23:30N 70°38' E 029°44'0 0.0
2017-Oct-10 23:00N 70°38' E 029°44'0 0.0
2017-Oct-10 22:30N 70°38' E 029°44'0 0.0
2017-Oct-10 22:00N 70°38' E 029°44'0 0.0
2017-Oct-10 21:18N 70°38' E 029°44'0 0.0
2017-Oct-10 21:00N 70°38' E 029°44'0 0.0
2017-Oct-10 20:30N 70°38' E 029°44'0 0.0
2017-Oct-10 20:00N 70°38' E 029°44'0 0.0
2017-Oct-10 19:30N 70°38' E 029°44'0 0.0
2017-Oct-10 19:00N 70°38' E 029°44'0 0.0
2017-Oct-10 18:30N 70°38' E 029°44'0 0.0
2017-Oct-10 18:00N 70°38' E 029°44'0 0.0
2017-Oct-10 17:30N 70°38' E 029°44'0 0.0
2017-Oct-10 17:00N 70°38' E 029°44'0 0.0
2017-Oct-10 16:30N 70°38' E 029°44'0 0.0
2017-Oct-10 16:00N 70°38' E 029°44'0 0.0
2017-Oct-10 15:30N 70°38' E 029°44'0 0.0
2017-Oct-10 14:48N 70°38' E 029°44'0 0.0
2017-Oct-10 14:00N 70°38' E 029°44'0 0.0
2017-Oct-10 13:30N 70°38' E 029°44'0 0.0
2017-Oct-10 13:00N 70°38' E 029°44'0 0.0
2017-Oct-10 12:30N 70°38' E 029°44'0 0.0
2017-Oct-10 11:54N 70°38' E 029°44'0 0.0
2017-Oct-10 11:30N 70°38' E 029°44'0 0.0
2017-Oct-10 11:00N 70°38' E 029°44'0 0.0
2017-Oct-10 10:30N 70°38' E 029°44'0 0.0
2017-Oct-10 10:00N 70°38' E 029°44'0 0.0
2017-Oct-10 09:30N 70°38' E 029°44'0 0.0
2017-Oct-10 09:00N 70°38' E 029°44'0 0.0
2017-Oct-10 08:30N 70°38' E 029°44'0 0.0
2017-Oct-10 08:00N 70°38' E 029°44'0 0.0
2017-Oct-10 07:30N 70°38' E 029°44'0 0.0
2017-Oct-10 07:00N 70°38' E 029°44'0 0.0
2017-Oct-10 06:30N 70°38' E 029°44'0 0.0
2017-Oct-10 06:00N 70°38' E 029°44'0 0.0
2017-Oct-10 05:30N 70°38' E 029°44'0 0.0
2017-Oct-10 05:00N 70°38' E 029°44'0 0.0
2017-Oct-10 04:30N 70°38' E 029°44'0 0.0
2017-Oct-10 04:00N 70°38' E 029°44'0 0.0
2017-Oct-10 03:30N 70°38' E 029°44'0 0.0
2017-Oct-10 03:00N 70°38' E 029°44'0 0.0
2017-Oct-10 02:30N 70°38' E 029°44'0 0.0
2017-Oct-10 02:00N 70°38' E 029°44'0 0.0
2017-Oct-10 01:30N 70°38' E 029°44'0 0.0
2017-Oct-10 01:00N 70°38' E 029°44'0 0.0
2017-Oct-10 00:30N 70°38' E 029°44'0 0.0
2017-Oct-10 00:00N 70°38' E 029°44'0 0.0
2017-Oct-09 23:30N 70°38' E 029°44'0 0.0
2017-Oct-09 23:00N 70°38' E 029°44'0 0.0
2017-Oct-09 22:30N 70°38' E 029°44'0 0.0
2017-Oct-09 22:00N 70°38' E 029°44'0 0.0
2017-Oct-09 21:30N 70°38' E 029°44'0 0.0
2017-Oct-09 21:00N 70°38' E 029°44'0 0.0
2017-Oct-09 20:30N 70°38' E 029°44'0 0.0
2017-Oct-09 20:00N 70°38' E 029°44'0 0.0
2017-Oct-09 19:30N 70°38' E 029°44'0 0.0
2017-Oct-09 19:00N 70°38' E 029°44'0 0.0
2017-Oct-09 18:30N 70°38' E 029°44'0 0.0
2017-Oct-09 18:00N 70°38' E 029°44'0 0.0
2017-Oct-09 17:30N 70°38' E 029°44'0 0.0
2017-Oct-09 17:00N 70°38' E 029°44'0 0.0
2017-Oct-09 16:30N 70°38' E 029°44'0 0.0
2017-Oct-09 16:00N 70°38' E 029°44'0 0.0
2017-Oct-09 15:24N 70°38' E 029°44'0 0.0
2017-Oct-09 15:00N 70°38' E 029°44'0 0.0
2017-Oct-09 14:30N 70°38' E 029°44'0 0.0
2017-Oct-09 13:54N 70°38' E 029°44'0 0.0
2017-Oct-09 13:24N 70°38' E 029°44'0 0.0
2017-Oct-09 12:54N 70°38' E 029°44'0 0.0
2017-Oct-09 12:30N 70°38' E 029°44'0 0.0
2017-Oct-09 11:54N 70°38' E 029°44'0 0.0
2017-Oct-09 11:30N 70°38' E 029°44'0 0.0
2017-Oct-09 10:54N 70°38' E 029°44'0 0.0
2017-Oct-09 10:30N 70°38' E 029°44'0 0.0
2017-Oct-09 10:00N 70°38' E 029°44'0 0.0
2017-Oct-09 09:30N 70°38' E 029°44'0 0.0
2017-Oct-09 09:00N 70°38' E 029°44'0 0.0
2017-Oct-09 08:30N 70°38' E 029°44'0 0.0
2017-Oct-09 08:00N 70°38' E 029°44'0 0.0
2017-Oct-09 07:30N 70°38' E 029°44'0 0.0
2017-Oct-09 07:00N 70°38' E 029°44'0 0.0
2017-Oct-09 06:30N 70°38' E 029°44'0 0.0
2017-Oct-09 06:00N 70°38' E 029°44'0 0.0
2017-Oct-09 05:30N 70°38' E 029°44'0 0.0
2017-Oct-09 05:00N 70°38' E 029°44'0 0.0
2017-Oct-09 04:30N 70°38' E 029°44'0 0.0
2017-Oct-09 04:00N 70°38' E 029°44'0 0.0
2017-Oct-09 03:24N 70°38' E 029°44'0 0.0
2017-Oct-09 03:00N 70°38' E 029°44'0 0.0
2017-Oct-09 02:30N 70°38' E 029°44'0 0.0
2017-Oct-09 02:00N 70°38' E 029°44'0 0.0
2017-Oct-09 01:30N 70°38' E 029°44'0 0.0
2017-Oct-09 01:00N 70°38' E 029°44'0 0.0
2017-Oct-09 00:30N 70°38' E 029°44'0 0.0
2017-Oct-09 00:00N 70°38' E 029°44'0 0.0
2017-Oct-08 23:24N 70°38' E 029°44'0 0.0
2017-Oct-08 23:00N 70°38' E 029°44'0 0.0
2017-Oct-08 22:30N 70°38' E 029°44'0 0.0
2017-Oct-08 22:00N 70°38' E 029°44'0 0.0
2017-Oct-08 21:30N 70°38' E 029°44'0 0.0
2017-Oct-08 21:00N 70°38' E 029°44'0 0.0
2017-Oct-08 20:30N 70°38' E 029°44'0 0.0
2017-Oct-08 20:00N 70°38' E 029°44'0 0.0
2017-Oct-08 19:30N 70°38' E 029°44'0 0.0
2017-Oct-08 19:00N 70°38' E 029°44'0 0.0
2017-Oct-08 18:30N 70°38' E 029°44'0 0.0
2017-Oct-08 18:00N 70°38' E 029°44'0 0.0
2017-Oct-08 17:30N 70°38' E 029°44'0 0.0
2017-Oct-08 17:00N 70°38' E 029°44'0 0.0
2017-Oct-08 16:30N 70°38' E 029°44'0 0.0
2017-Oct-08 16:00N 70°38' E 029°44'0 0.0
2017-Oct-08 15:30N 70°38' E 029°44'0 0.0
2017-Oct-08 15:00N 70°38' E 029°44'0 0.0
2017-Oct-08 14:30N 70°38' E 029°44'0 0.0
2017-Oct-08 14:00N 70°38' E 029°44'0 0.0
2017-Oct-08 13:30N 70°38' E 029°44'0 0.0
2017-Oct-08 13:00N 70°38' E 029°44'0 0.0
2017-Oct-08 12:30N 70°38' E 029°44'0 0.0
2017-Oct-08 12:00N 70°38' E 029°44'0 0.0
2017-Oct-08 11:30N 70°38' E 029°44'0 0.0
2017-Oct-08 11:00N 70°38' E 029°44'0 0.0
2017-Oct-08 10:30N 70°38' E 029°44'0 0.0
2017-Oct-08 10:00N 70°38' E 029°44'0 0.0
2017-Oct-08 09:30N 70°38' E 029°44'0 0.0
2017-Oct-08 09:00N 70°38' E 029°44'0 0.0
2017-Oct-08 08:30N 70°38' E 029°44'0 0.0
2017-Oct-08 08:00N 70°38' E 029°44'0 0.0
2017-Oct-08 07:30N 70°38' E 029°44'0 0.0
2017-Oct-08 07:00N 70°38' E 029°44'0 0.0
2017-Oct-08 06:30N 70°38' E 029°44'0 0.0
2017-Oct-08 05:54N 70°38' E 029°44'0 0.0
2017-Oct-08 05:30N 70°38' E 029°44'0 0.0
2017-Oct-08 05:00N 70°38' E 029°44'0 0.0
2017-Oct-08 04:24N 70°38' E 029°44'0 0.0
2017-Oct-08 04:00N 70°38' E 029°44'0 0.0
2017-Oct-08 03:30N 70°38' E 029°44'0 0.0
2017-Oct-08 03:00N 70°38' E 029°44'0 0.0
2017-Oct-08 02:30N 70°38' E 029°44'0 0.0
2017-Oct-08 02:00N 70°38' E 029°44'0 0.0
2017-Oct-08 01:30N 70°38' E 029°44'0 0.0
2017-Oct-08 01:00N 70°38' E 029°44'0 0.0
2017-Oct-08 00:30N 70°38' E 029°44'0 0.0
2017-Oct-07 23:54N 70°38' E 029°44'0 0.0
2017-Oct-07 23:30N 70°38' E 029°44'0 0.0
2017-Oct-07 23:00N 70°38' E 029°44'0 0.0
2017-Oct-07 22:30N 70°38' E 029°44'0 0.0
2017-Oct-07 21:54N 70°38' E 029°44'  

Dump ship's entire track history